Time;durP1;ratioP1;P1;durP2;ratioP2;P2;SDS_P1;SDS_P2;PMS_P1;PMS_P2;Temp;Humidity;BMP_temperature;BMP_pressure;BME280_temperature;BME280_humidity;BME280_pressure;Samples;Min_cycle;Max_cycle;Signal;HPM_P1;HPM_P2
2023/09/08 00:01:55;;;;;;;9.55;7.38;;;19.70;99.90;;;;;;5001745;28;20165;-75
2023/09/08 00:04:21;;;;;;;11.90;7.47;;;19.60;99.90;;;;;;5001847;28;20074;-74
2023/09/08 00:06:47;;;;;;;10.07;7.68;;;19.60;99.90;;;;;;5002008;28;20037;-74
2023/09/08 00:09:12;;;;;;;11.82;8.10;;;19.60;99.90;;;;;;5002382;28;20047;-74
2023/09/08 00:11:38;;;;;;;12.75;8.07;;;19.50;99.90;;;;;;5003490;28;20034;-75
2023/09/08 00:14:04;;;;;;;11.05;7.72;;;19.50;99.90;;;;;;5004071;28;20019;-74
2023/09/08 00:16:30;;;;;;;10.85;7.72;;;19.50;99.90;;;;;;5001578;28;20037;-74
2023/09/08 00:18:57;;;;;;;12.50;7.68;;;19.50;99.90;;;;;;5001866;28;20068;-74
2023/09/08 00:21:22;;;;;;;12.80;7.53;;;19.50;99.90;;;;;;5003810;28;20050;-74
2023/09/08 00:23:48;;;;;;;12.35;7.70;;;19.50;99.90;;;;;;5003152;28;20038;-74
2023/09/08 00:26:13;;;;;;;11.23;8.05;;;19.40;99.90;;;;;;5001466;28;20037;-74
2023/09/08 00:28:39;;;;;;;11.38;7.82;;;19.40;99.90;;;;;;5002897;28;20034;-76
2023/09/08 00:31:05;;;;;;;12.65;8.20;;;19.40;99.90;;;;;;5002231;28;20030;-76
2023/09/08 00:33:30;;;;;;;9.15;7.53;;;19.30;99.90;;;;;;5002904;28;20498;-74
2023/09/08 00:35:57;;;;;;;11.57;7.95;;;19.30;99.90;;;;;;5002846;28;20046;-74
2023/09/08 00:38:23;;;;;;;12.02;8.35;;;19.20;99.90;;;;;;5001645;28;20041;-76
2023/09/08 00:40:48;;;;;;;11.23;8.07;;;19.20;99.90;;;;;;5001371;28;20049;-74
2023/09/08 00:43:14;;;;;;;15.68;8.30;;;19.20;99.90;;;;;;5001195;28;20133;-76
2023/09/08 00:45:42;;;;;;;11.57;8.73;;;19.20;99.90;;;;;;4999451;28;20026;-75
2023/09/08 00:48:09;;;;;;;13.07;7.90;;;19.10;99.90;;;;;;5002515;28;20018;-74
2023/09/08 00:50:36;;;;;;;13.60;8.73;;;19.10;99.90;;;;;;5001521;28;20034;-74
2023/09/08 00:53:07;;;;;;;11.68;8.50;;;19.10;99.90;;;;;;5002503;28;20017;-74
2023/09/08 00:55:33;;;;;;;15.88;8.13;;;19.10;99.90;;;;;;5001837;28;20065;-75
2023/09/08 00:58:00;;;;;;;12.13;8.55;;;19.00;99.90;;;;;;5000217;28;20864;-76
2023/09/08 01:00:26;;;;;;;13.63;8.38;;;19.00;99.90;;;;;;5000947;28;21145;-74
2023/09/08 01:02:52;;;;;;;13.18;8.20;;;18.90;99.90;;;;;;4999827;28;20034;-75
2023/09/08 01:05:18;;;;;;;11.90;8.73;;;18.90;99.90;;;;;;5001841;28;20018;-74
2023/09/08 01:07:45;;;;;;;10.45;8.48;;;18.90;99.90;;;;;;5000439;28;20036;-74
2023/09/08 01:10:11;;;;;;;13.55;8.00;;;18.80;99.90;;;;;;5000336;28;20031;-74
2023/09/08 01:12:37;;;;;;;13.45;8.73;;;18.80;99.90;;;;;;5001945;28;20631;-74
2023/09/08 01:15:04;;;;;;;11.45;8.30;;;18.70;99.90;;;;;;5001766;28;20036;-75
2023/09/08 01:17:30;;;;;;;11.35;8.70;;;18.70;99.90;;;;;;5002043;28;20018;-74
2023/09/08 01:19:58;;;;;;;13.85;8.32;;;18.70;99.90;;;;;;5001121;28;20101;-74
2023/09/08 01:22:47;;;;;;;12.23;8.35;;;18.60;99.90;;;;;;4999376;28;20034;-74
2023/09/08 01:25:19;;;;;;;11.88;8.40;;;18.60;99.90;;;;;;5000350;28;20030;-76
2023/09/08 01:27:58;;;;;;;11.05;8.40;;;18.60;99.90;;;;;;5001704;28;20037;-75
2023/09/08 01:30:28;;;;;;;12.35;8.73;;;18.60;99.90;;;;;;5002120;28;20034;-74
2023/09/08 01:32:55;;;;;;;13.38;8.82;;;18.50;99.90;;;;;;4999657;28;20030;-75
2023/09/08 01:35:21;;;;;;;12.48;8.63;;;18.50;99.90;;;;;;4999108;28;20049;-74
2023/09/08 01:37:48;;;;;;;12.07;8.50;;;18.50;99.90;;;;;;4997720;28;20088;-74
2023/09/08 01:40:15;;;;;;;13.23;9.10;;;18.50;99.90;;;;;;5000161;28;20093;-73
2023/09/08 01:42:41;;;;;;;10.75;8.48;;;18.40;99.90;;;;;;4999933;28;20053;-73
2023/09/08 01:45:08;;;;;;;11.52;8.25;;;18.40;99.90;;;;;;4998877;28;20046;-75
2023/09/08 01:47:34;;;;;;;10.25;8.60;;;18.40;99.90;;;;;;5001643;28;20031;-73
2023/09/08 01:50:01;;;;;;;12.70;8.50;;;18.40;99.90;;;;;;4999488;28;20161;-73
2023/09/08 01:52:27;;;;;;;12.20;9.02;;;18.30;99.90;;;;;;4999845;28;20364;-74
2023/09/08 01:54:52;;;;;;;13.88;8.70;;;18.30;99.90;;;;;;5000147;28;20030;-74
2023/09/08 01:57:18;;;;;;;14.13;9.52;;;18.30;99.90;;;;;;5001603;28;20030;-74
2023/09/08 01:59:44;;;;;;;12.02;9.13;;;18.20;99.90;;;;;;5004090;28;20019;-76
2023/09/08 02:02:10;;;;;;;13.38;8.90;;;18.20;99.90;;;;;;5004641;28;20030;-73
2023/09/08 02:04:36;;;;;;;12.70;8.98;;;18.20;99.90;;;;;;5004899;28;20053;-75
2023/09/08 02:07:03;;;;;;;11.95;9.13;;;18.20;99.90;;;;;;5004374;28;20030;-74
2023/09/08 02:09:33;;;;;;;13.27;9.18;;;18.10;99.90;;;;;;5004728;28;20030;-75
2023/09/08 02:12:00;;;;;;;13.68;9.18;;;18.10;99.90;;;;;;5003075;28;20089;-74
2023/09/08 02:14:26;;;;;;;11.73;9.00;;;18.10;99.90;;;;;;5004209;28;20078;-75
2023/09/08 02:16:51;;;;;;;12.73;8.98;;;18.10;99.90;;;;;;5004539;28;20030;-74
2023/09/08 02:19:17;;;;;;;13.48;9.07;;;18.10;99.90;;;;;;5004185;28;20029;-74
2023/09/08 02:21:43;;;;;;;12.00;9.13;;;18.10;99.90;;;;;;5005074;28;20028;-73
2023/09/08 02:24:09;;;;;;;16.02;8.95;;;18.00;99.90;;;;;;5003669;28;20148;-74
2023/09/08 02:26:35;;;;;;;15.32;10.18;;;18.00;99.90;;;;;;5005464;28;20574;-74
2023/09/08 02:29:01;;;;;;;12.98;8.82;;;18.00;99.90;;;;;;5002362;28;20054;-75
2023/09/08 02:31:29;;;;;;;13.30;9.10;;;17.90;99.90;;;;;;5003762;28;20042;-75
2023/09/08 02:33:55;;;;;;;16.65;9.27;;;18.00;99.90;;;;;;5004384;28;20034;-74
2023/09/08 02:36:25;;;;;;;12.68;8.63;;;17.90;99.90;;;;;;5004083;28;20030;-75
2023/09/08 02:38:52;;;;;;;10.93;9.15;;;17.90;99.90;;;;;;5005273;28;20018;-75
2023/09/08 02:41:17;;;;;;;12.77;9.00;;;17.90;99.90;;;;;;5004872;28;20023;-74
2023/09/08 02:43:43;;;;;;;15.55;9.63;;;17.90;99.90;;;;;;5005246;28;20074;-74
2023/09/08 02:46:09;;;;;;;11.50;8.77;;;17.90;99.90;;;;;;5004077;28;20069;-74
2023/09/08 02:48:35;;;;;;;12.55;8.88;;;17.80;99.90;;;;;;5003641;28;20542;-75
2023/09/08 02:51:00;;;;;;;12.55;9.40;;;17.80;99.90;;;;;;5004904;28;20033;-74
2023/09/08 02:53:28;;;;;;;11.77;8.88;;;17.80;99.90;;;;;;5005054;28;20022;-74
2023/09/08 02:56:00;;;;;;;14.15;8.68;;;17.70;99.90;;;;;;5004763;28;20073;-75
2023/09/08 02:58:26;;;;;;;15.57;9.68;;;17.70;99.90;;;;;;5005120;28;20093;-74
2023/09/08 03:00:52;;;;;;;13.98;9.60;;;17.70;99.90;;;;;;5002383;28;20065;-74
2023/09/08 03:03:19;;;;;;;11.45;8.80;;;17.70;99.90;;;;;;5003453;28;20042;-74
2023/09/08 03:05:44;;;;;;;13.60;9.43;;;17.70;99.90;;;;;;5003820;28;20022;-75
2023/09/08 03:08:10;;;;;;;15.13;9.18;;;17.70;99.90;;;;;;5003039;28;20065;-74
2023/09/08 03:10:36;;;;;;;12.52;8.93;;;17.70;99.90;;;;;;5002752;28;20027;-74
2023/09/08 03:13:02;;;;;;;14.60;9.60;;;17.70;99.90;;;;;;5003328;28;20061;-76
2023/09/08 03:15:28;;;;;;;14.13;9.43;;;17.70;99.90;;;;;;5002832;28;20022;-75
2023/09/08 03:17:58;;;;;;;12.57;9.35;;;17.70;99.90;;;;;;5002980;28;20027;-75
2023/09/08 03:20:25;;;;;;;15.85;9.00;;;17.70;99.90;;;;;;5003201;28;20077;-74
2023/09/08 03:22:52;;;;;;;15.40;9.65;;;17.60;99.90;;;;;;5003230;28;20035;-76
2023/09/08 03:25:17;;;;;;;12.95;9.25;;;17.60;99.90;;;;;;5003709;28;20399;-76
2023/09/08 03:27:43;;;;;;;16.13;9.20;;;17.60;99.90;;;;;;5004395;28;20030;-76
2023/09/08 03:30:09;;;;;;;12.77;9.68;;;17.60;99.90;;;;;;5004465;28;20030;-76
2023/09/08 03:32:35;;;;;;;14.05;10.07;;;17.50;99.90;;;;;;5002702;28;20030;-75
2023/09/08 03:35:01;;;;;;;13.02;9.57;;;17.50;99.90;;;;;;5002026;28;20582;-76
2023/09/08 03:37:27;;;;;;;13.88;9.30;;;17.50;99.90;;;;;;5004289;28;20115;-75
2023/09/08 03:39:53;;;;;;;14.18;9.57;;;17.50;99.90;;;;;;5002143;28;20033;-76
2023/09/08 03:42:19;;;;;;;13.82;9.75;;;17.40;99.90;;;;;;5003734;28;20487;-77
2023/09/08 03:44:44;;;;;;;13.95;9.00;;;17.40;99.90;;;;;;5003818;28;20019;-76
2023/09/08 03:47:10;;;;;;;14.55;9.80;;;17.40;99.90;;;;;;5002551;28;20022;-75
2023/09/08 03:49:36;;;;;;;15.23;10.07;;;17.40;99.90;;;;;;5004176;28;20026;-75
2023/09/08 03:52:01;;;;;;;14.23;9.63;;;17.40;99.90;;;;;;5002511;28;20038;-75
2023/09/08 03:54:27;;;;;;;13.23;9.57;;;17.30;99.90;;;;;;5002261;28;20027;-77
2023/09/08 03:56:52;;;;;;;12.70;9.90;;;17.30;99.90;;;;;;5003440;28;20026;-74
2023/09/08 03:59:18;;;;;;;14.55;9.80;;;17.20;99.90;;;;;;5003336;28;20026;-75
2023/09/08 04:01:44;;;;;;;14.05;9.00;;;17.20;99.90;;;;;;5003210;28;20038;-75
2023/09/08 04:04:09;;;;;;;15.40;9.57;;;17.20;99.90;;;;;;5003346;28;20397;-75
2023/09/08 04:06:35;;;;;;;13.63;10.13;;;17.20;99.90;;;;;;5003622;28;20034;-75
2023/09/08 04:09:01;;;;;;;13.40;10.10;;;17.10;99.90;;;;;;5003752;28;20030;-75
2023/09/08 04:11:26;;;;;;;15.38;10.38;;;17.10;99.90;;;;;;5002506;28;20030;-75
2023/09/08 04:13:52;;;;;;;13.18;9.73;;;17.10;99.90;;;;;;5000588;28;20138;-76
2023/09/08 04:16:18;;;;;;;15.77;10.73;;;17.10;99.90;;;;;;5000322;28;20101;-75
2023/09/08 04:18:44;;;;;;;15.63;10.63;;;17.00;99.90;;;;;;5001967;28;20086;-75
2023/09/08 04:21:10;;;;;;;14.13;9.73;;;17.00;99.90;;;;;;5001805;28;20030;-74
2023/09/08 04:23:36;;;;;;;15.95;10.38;;;17.00;99.90;;;;;;5003340;28;20475;-75
2023/09/08 04:26:02;;;;;;;14.52;9.95;;;17.00;99.90;;;;;;5003669;28;20022;-76
2023/09/08 04:28:27;;;;;;;14.32;10.07;;;17.00;99.90;;;;;;5003114;28;20022;-74
2023/09/08 04:30:53;;;;;;;13.90;10.38;;;17.00;99.90;;;;;;5002266;28;20027;-74
2023/09/08 04:33:19;;;;;;;13.50;10.23;;;16.90;99.90;;;;;;5002026;28;20026;-74
2023/09/08 04:35:45;;;;;;;14.05;10.52;;;16.90;99.90;;;;;;5001483;28;20049;-75
2023/09/08 04:38:11;;;;;;;14.85;10.18;;;16.90;99.90;;;;;;5003333;28;20049;-75
2023/09/08 04:40:40;;;;;;;13.85;10.27;;;16.90;99.90;;;;;;5001678;28;20034;-75
2023/09/08 04:43:05;;;;;;;14.48;10.80;;;16.80;99.90;;;;;;5000809;28;20101;-77
2023/09/08 04:45:31;;;;;;;13.38;10.45;;;16.90;99.90;;;;;;5001016;28;20483;-75
2023/09/08 04:47:56;;;;;;;15.50;11.00;;;16.80;99.90;;;;;;4999719;28;20030;-75
2023/09/08 04:50:22;;;;;;;15.85;10.23;;;16.80;99.90;;;;;;5000785;28;20101;-75
2023/09/08 04:52:48;;;;;;;13.70;10.52;;;16.80;99.90;;;;;;5001636;28;20085;-74
2023/09/08 04:55:14;;;;;;;14.63;10.90;;;16.70;99.90;;;;;;5000415;28;20018;-75
2023/09/08 04:57:39;;;;;;;15.15;11.02;;;16.70;99.90;;;;;;5003138;28;20026;-74
2023/09/08 05:00:06;;;;;;;15.52;10.75;;;16.70;99.90;;;;;;5001463;28;20026;-75
2023/09/08 05:02:32;;;;;;;14.25;10.45;;;16.70;99.90;;;;;;4999624;28;20045;-75
2023/09/08 05:04:57;;;;;;;17.35;11.43;;;16.70;99.90;;;;;;5000289;28;20034;-73
2023/09/08 05:07:23;;;;;;;17.77;10.55;;;16.70;99.90;;;;;;4998441;28;20034;-77
2023/09/08 05:09:49;;;;;;;16.75;11.15;;;16.70;99.90;;;;;;4999922;28;20042;-73
2023/09/08 05:12:15;;;;;;;13.65;10.57;;;16.60;99.90;;;;;;4999072;28;20034;-76
2023/09/08 05:14:41;;;;;;;16.88;11.25;;;16.60;99.90;;;;;;5000479;28;20024;-74
2023/09/08 05:17:07;;;;;;;16.02;11.13;;;16.60;99.90;;;;;;5000363;28;20064;-75
2023/09/08 05:19:32;;;;;;;19.42;11.20;;;16.70;99.90;;;;;;5000701;28;20156;-76
2023/09/08 05:21:58;;;;;;;15.77;10.55;;;16.70;99.90;;;;;;5001266;28;20029;-75
2023/09/08 05:24:25;;;;;;;16.02;11.85;;;16.70;99.90;;;;;;5000708;28;20034;-73
2023/09/08 05:26:51;;;;;;;16.42;11.52;;;16.70;99.90;;;;;;4999652;28;20030;-74
2023/09/08 05:29:16;;;;;;;15.23;11.15;;;16.70;99.90;;;;;;4999827;28;20048;-73
2023/09/08 05:31:42;;;;;;;20.50;11.80;;;16.70;99.90;;;;;;5000189;28;20022;-74
2023/09/08 05:34:08;;;;;;;14.20;11.10;;;16.70;99.90;;;;;;5001794;28;20459;-75
2023/09/08 05:36:36;;;;;;;18.88;11.50;;;16.80;99.90;;;;;;5001099;28;20403;-76
2023/09/08 05:39:05;;;;;;;18.20;11.90;;;16.80;99.90;;;;;;5002029;28;20100;-75
2023/09/08 05:41:31;;;;;;;13.82;11.02;;;16.80;99.90;;;;;;5000555;28;20030;-75
2023/09/08 05:43:57;;;;;;;16.33;11.38;;;16.80;99.90;;;;;;5000146;28;20079;-74
2023/09/08 05:46:23;;;;;;;15.60;11.57;;;16.90;99.90;;;;;;4999584;28;20052;-75
2023/09/08 05:48:48;;;;;;;18.15;10.98;;;16.80;99.90;;;;;;5001696;28;20118;-73
2023/09/08 05:51:15;;;;;;;15.25;11.45;;;16.90;99.90;;;;;;5000242;28;20023;-75
2023/09/08 05:53:40;;;;;;;16.15;11.77;;;16.90;99.90;;;;;;5002371;28;20041;-76
2023/09/08 05:56:06;;;;;;;17.42;11.30;;;16.90;99.90;;;;;;5000280;28;20030;-75
2023/09/08 05:58:33;;;;;;;15.68;10.88;;;17.00;99.90;;;;;;5001674;28;20053;-75
2023/09/08 06:01:03;;;;;;;16.80;11.68;;;17.00;99.90;;;;;;5000318;28;20038;-74
2023/09/08 06:03:29;;;;;;;18.70;12.50;;;17.00;99.90;;;;;;4998597;28;20042;-76
2023/09/08 06:05:54;;;;;;;17.20;11.38;;;17.00;99.90;;;;;;4999719;28;20039;-73
2023/09/08 06:08:20;;;;;;;17.35;11.32;;;17.10;99.90;;;;;;4997515;28;20490;-74
2023/09/08 06:10:46;;;;;;;16.30;11.48;;;17.10;99.90;;;;;;4998479;28;20053;-72
2023/09/08 06:13:11;;;;;;;19.08;12.48;;;17.10;99.90;;;;;;4999512;28;20046;-73
2023/09/08 06:15:37;;;;;;;18.00;12.05;;;17.20;99.90;;;;;;4999814;28;20538;-73
2023/09/08 06:18:03;;;;;;;19.52;11.52;;;17.20;99.90;;;;;;5002078;28;20030;-73
2023/09/08 06:20:28;;;;;;;17.92;11.38;;;17.30;99.90;;;;;;5001197;28;20046;-73
2023/09/08 06:22:54;;;;;;;18.58;11.80;;;17.30;99.90;;;;;;4998964;28;20045;-72
2023/09/08 06:25:20;;;;;;;17.15;11.13;;;17.30;99.90;;;;;;4998915;28;20031;-72
2023/09/08 06:27:45;;;;;;;16.08;11.15;;;17.40;99.90;;;;;;5000187;28;20028;-73
2023/09/08 06:30:13;;;;;;;15.35;11.55;;;17.40;99.90;;;;;;5001686;28;20058;-72
2023/09/08 06:32:39;;;;;;;16.67;10.88;;;17.40;99.90;;;;;;5001059;28;20094;-74
2023/09/08 06:35:05;;;;;;;17.15;11.02;;;17.50;99.90;;;;;;5001297;28;20046;-75
2023/09/08 06:37:36;;;;;;;17.48;11.18;;;17.50;99.90;;;;;;5000257;28;20080;-73
2023/09/08 06:40:02;;;;;;;23.33;11.73;;;17.50;99.90;;;;;;5000223;28;20049;-75
2023/09/08 06:42:27;;;;;;;16.33;11.30;;;17.60;99.90;;;;;;5001583;28;20030;-73
2023/09/08 06:44:53;;;;;;;15.35;11.77;;;17.60;99.90;;;;;;5002009;28;20034;-74
2023/09/08 06:47:19;;;;;;;15.93;11.27;;;17.60;99.90;;;;;;5005162;28;20452;-74
2023/09/08 06:49:45;;;;;;;16.48;11.77;;;17.70;99.90;;;;;;5003631;28;20045;-76
2023/09/08 06:52:10;;;;;;;17.80;11.48;;;17.80;99.90;;;;;;5005168;28;20399;-74
2023/09/08 06:54:36;;;;;;;16.42;11.48;;;17.80;99.90;;;;;;5004446;28;20038;-73
2023/09/08 06:57:01;;;;;;;17.77;11.15;;;17.90;99.90;;;;;;5004686;28;20045;-72
2023/09/08 06:59:27;;;;;;;16.58;11.98;;;18.00;99.90;;;;;;5004732;28;20030;-74
2023/09/08 07:01:52;;;;;;;15.98;11.55;;;18.00;99.90;;;;;;5004738;28;20022;-73
2023/09/08 07:04:18;;;;;;;17.20;11.65;;;18.10;99.90;;;;;;5003420;28;20097;-74
2023/09/08 07:06:46;;;;;;;17.83;11.07;;;18.10;99.90;;;;;;5002082;28;20038;-73
2023/09/08 07:09:12;;;;;;;23.08;12.23;;;18.20;99.90;;;;;;5017157;28;20026;-73
2023/09/08 07:11:37;;;;;;;18.92;12.27;;;18.30;99.90;;;;;;5004018;28;20038;-72
2023/09/08 07:14:03;;;;;;;16.23;11.15;;;18.30;99.90;;;;;;5003485;28;20092;-73
2023/09/08 07:16:29;;;;;;;15.98;10.50;;;18.40;99.90;;;;;;5004376;28;20026;-72
2023/09/08 07:18:54;;;;;;;21.52;11.95;;;18.50;99.90;;;;;;5002334;28;20125;-72
2023/09/08 07:21:20;;;;;;;17.83;11.98;;;18.60;99.90;;;;;;5001870;28;20138;-74
2023/09/08 07:23:46;;;;;;;16.73;12.13;;;18.60;99.90;;;;;;5003270;28;20039;-74
2023/09/08 07:26:12;;;;;;;13.65;9.95;;;18.80;99.90;;;;;;5004533;28;20023;-73
2023/09/08 07:28:37;;;;;;;14.98;10.88;;;18.80;99.90;;;;;;5003369;28;20065;-73
2023/09/08 07:31:08;;;;;;;17.13;12.13;;;18.90;99.90;;;;;;5002169;28;20027;-74
2023/09/08 07:33:34;;;;;;;15.55;11.65;;;19.00;99.90;;;;;;5004208;28;20028;-74
2023/09/08 07:36:05;;;;;;;16.90;10.43;;;19.10;99.90;;;;;;5000308;28;20054;-73
2023/09/08 07:38:31;;;;;;;18.60;11.55;;;19.10;99.90;;;;;;5003247;28;20745;-72
2023/09/08 07:40:56;;;;;;;16.08;11.13;;;19.30;99.90;;;;;;5001742;28;20034;-72
2023/09/08 07:43:22;;;;;;;21.95;11.73;;;19.40;99.90;;;;;;5002661;28;20047;-73
2023/09/08 07:45:48;;;;;;;19.73;11.85;;;19.50;99.90;;;;;;5003307;28;20022;-71
2023/09/08 07:48:13;;;;;;;17.00;11.68;;;19.60;99.90;;;;;;5002027;28;20026;-75
2023/09/08 07:50:39;;;;;;;15.50;11.30;;;19.70;99.90;;;;;;5003540;28;20038;-74
2023/09/08 07:53:04;;;;;;;13.00;10.82;;;19.80;99.90;;;;;;5002107;28;20030;-74
2023/09/08 07:55:30;;;;;;;17.20;11.77;;;19.90;99.90;;;;;;5002451;28;20030;-74
2023/09/08 07:57:57;;;;;;;17.60;12.10;;;20.00;99.90;;;;;;4999563;28;20130;-73
2023/09/08 08:00:23;;;;;;;18.55;11.95;;;20.10;99.90;;;;;;5001501;28;20022;-74
2023/09/08 08:02:54;;;;;;;15.95;11.05;;;20.20;99.90;;;;;;5002197;28;20054;-74
2023/09/08 08:05:20;;;;;;;14.98;10.57;;;20.30;99.90;;;;;;5003211;28;20053;-74
2023/09/08 08:07:45;;;;;;;14.95;10.60;;;20.40;99.90;;;;;;4999261;28;20030;-74
2023/09/08 08:10:12;;;;;;;16.50;10.35;;;20.50;99.90;;;;;;5001472;28;20026;-75
2023/09/08 08:12:38;;;;;;;17.88;10.65;;;20.60;99.90;;;;;;5002564;28;20037;-74
2023/09/08 08:15:04;;;;;;;16.25;10.77;;;20.70;99.90;;;;;;5003486;28;20030;-73
2023/09/08 08:17:30;;;;;;;18.70;10.70;;;20.90;99.90;;;;;;5000683;28;20559;-72
2023/09/08 08:19:58;;;;;;;16.92;10.68;;;21.00;99.90;;;;;;5001770;28;20031;-70
2023/09/08 08:22:24;;;;;;;18.02;10.93;;;21.10;99.90;;;;;;4999524;28;20050;-71
2023/09/08 08:24:50;;;;;;;14.05;9.98;;;21.20;99.90;;;;;;5001042;28;20060;-71
2023/09/08 08:27:15;;;;;;;16.80;10.05;;;21.30;99.90;;;;;;5000279;28;20143;-72
2023/09/08 08:29:41;;;;;;;16.08;10.73;;;21.40;99.90;;;;;;5002465;28;20030;-72
2023/09/08 08:32:06;;;;;;;15.95;10.50;;;21.50;99.90;;;;;;5001873;28;20061;-73
2023/09/08 08:34:32;;;;;;;15.93;10.15;;;21.60;99.90;;;;;;4998058;28;20691;-75
2023/09/08 08:36:58;;;;;;;13.73;9.40;;;21.70;99.90;;;;;;4998256;28;20034;-70
2023/09/08 08:39:23;;;;;;;16.73;10.38;;;21.80;99.90;;;;;;4996923;28;20034;-73
2023/09/08 08:41:50;;;;;;;20.48;10.15;;;21.80;99.90;;;;;;4998244;28;20045;-73
2023/09/08 08:44:20;;;;;;;12.02;9.15;;;21.90;99.90;;;;;;4998783;28;20121;-73
2023/09/08 08:46:47;;;;;;;20.15;9.63;;;22.10;99.90;;;;;;4999292;28;20034;-72
2023/09/08 08:49:15;;;;;;;16.33;9.75;;;22.20;99.90;;;;;;5001126;28;20493;-73
2023/09/08 08:51:44;;;;;;;15.50;9.50;;;22.20;99.90;;;;;;5001605;28;20027;-73
2023/09/08 08:54:12;;;;;;;12.70;8.65;;;22.40;99.90;;;;;;5002880;28;20029;-71
2023/09/08 08:56:38;;;;;;;16.48;9.40;;;22.50;99.90;;;;;;5003119;28;20018;-74
2023/09/08 08:59:04;;;;;;;14.35;9.57;;;22.60;99.90;;;;;;5003009;28;20033;-75
2023/09/08 09:01:31;;;;;;;16.50;9.40;;;22.70;99.90;;;;;;5000986;28;20045;-72
2023/09/08 09:03:57;;;;;;;15.38;9.35;;;22.80;99.90;;;;;;5002609;28;20106;-71
2023/09/08 09:06:23;;;;;;;17.80;8.85;;;22.90;99.90;;;;;;5000322;28;20018;-77
2023/09/08 09:08:48;;;;;;;15.73;9.50;;;23.00;99.90;;;;;;5001285;28;20053;-73
2023/09/08 09:11:16;;;;;;;13.40;8.73;;;23.00;99.90;;;;;;5000887;28;20080;-73
2023/09/08 09:13:42;;;;;;;11.65;8.55;;;23.10;99.90;;;;;;5001838;28;20019;-75
2023/09/08 09:16:10;;;;;;;16.92;8.85;;;23.20;99.90;;;;;;5002946;28;20029;-72
2023/09/08 09:18:54;;;;;;;17.45;9.70;;;23.30;99.90;;;;;;5002357;28;20038;-74
2023/09/08 09:21:19;;;;;;;17.50;9.40;;;23.40;99.90;;;;;;5002477;28;20022;-73
2023/09/08 09:23:45;;;;;;;11.80;8.30;;;23.40;99.90;;;;;;5001045;28;20109;-74
2023/09/08 09:26:23;;;;;;;12.88;8.57;;;23.50;99.90;;;;;;5002414;28;20018;-71
2023/09/08 09:28:49;;;;;;;12.88;8.73;;;23.50;99.90;;;;;;5000819;28;20384;-73
2023/09/08 09:31:15;;;;;;;15.02;8.82;;;23.60;99.90;;;;;;5002660;28;20033;-71
2023/09/08 09:33:40;;;;;;;11.65;8.40;;;23.70;99.90;;;;;;5001088;28;20057;-72
2023/09/08 09:36:07;;;;;;;14.65;8.38;;;23.70;99.90;;;;;;5001854;28;20133;-72
2023/09/08 09:38:35;;;;;;;13.32;8.55;;;23.90;99.90;;;;;;5002277;28;20026;-72
2023/09/08 09:41:01;;;;;;;12.25;8.20;;;24.00;99.90;;;;;;5000605;28;20026;-72
2023/09/08 09:43:29;;;;;;;15.63;8.93;;;24.10;99.90;;;;;;5002148;28;20041;-73
2023/09/08 09:45:55;;;;;;;12.63;8.82;;;24.20;99.90;;;;;;5000694;28;20018;-74
2023/09/08 09:48:23;;;;;;;14.45;8.32;;;24.30;99.90;;;;;;5001439;28;20053;-73
2023/09/08 09:50:49;;;;;;;14.77;7.82;;;24.30;99.90;;;;;;5000954;28;20034;-72
2023/09/08 09:53:16;;;;;;;12.50;8.00;;;24.50;99.90;;;;;;5001304;28;20088;-74
2023/09/08 09:55:44;;;;;;;11.90;7.97;;;24.60;99.90;;;;;;5001973;28;20034;-72
2023/09/08 09:58:11;;;;;;;12.27;7.63;;;24.70;99.90;;;;;;5002253;28;20034;-73
2023/09/08 10:00:40;;;;;;;14.32;8.00;;;24.70;99.90;;;;;;5001888;28;20026;-73
2023/09/08 10:03:06;;;;;;;10.35;7.57;;;24.90;99.90;;;;;;5001440;28;20046;-72
2023/09/08 10:05:32;;;;;;;13.40;7.40;;;25.00;99.90;;;;;;5002150;28;20030;-71
2023/09/08 10:07:58;;;;;;;11.02;7.90;;;25.00;99.90;;;;;;5000318;28;20027;-74
2023/09/08 10:10:28;;;;;;;16.40;8.27;;;25.20;99.90;;;;;;5001926;28;20037;-74
2023/09/08 10:12:55;;;;;;;13.13;7.70;;;25.20;99.90;;;;;;5002123;28;20027;-73
2023/09/08 10:15:23;;;;;;;9.82;7.32;;;25.30;99.90;;;;;;5000771;28;20022;-72
2023/09/08 10:17:55;;;;;;;12.68;8.15;;;25.50;99.90;;;;;;5001703;28;20022;-72
2023/09/08 10:20:26;;;;;;;13.50;7.32;;;25.60;99.90;;;;;;5020801;28;20041;-72
2023/09/08 10:23:05;;;;;;;12.20;7.65;;;25.60;99.90;;;;;;5005326;28;20034;-74
2023/09/08 10:25:35;;;;;;;15.13;6.93;;;25.80;99.90;;;;;;5004242;28;20025;-73
2023/09/08 10:28:02;;;;;;;13.25;7.57;;;25.80;99.90;;;;;;5004094;28;20023;-73
2023/09/08 10:30:28;;;;;;;9.85;6.60;;;25.90;99.90;;;;;;5004651;28;20391;-75
2023/09/08 10:32:54;;;;;;;9.73;6.85;;;26.00;99.90;;;;;;5004845;28;20394;-73
2023/09/08 10:35:20;;;;;;;14.07;7.60;;;26.10;99.90;;;;;;5003850;28;20488;-73
2023/09/08 10:37:46;;;;;;;10.48;6.95;;;26.20;99.90;;;;;;5003588;28;20027;-75
2023/09/08 10:40:33;;;;;;;9.70;7.15;;;26.20;99.90;;;;;;5005780;28;20026;-73
2023/09/08 10:43:09;;;;;;;8.68;6.80;;;26.30;99.90;;;;;;5004540;28;20042;-71
2023/09/08 10:45:35;;;;;;;10.27;6.82;;;26.40;99.90;;;;;;5005274;28;20030;-73
2023/09/08 10:48:01;;;;;;;10.63;6.55;;;26.50;99.90;;;;;;5005389;28;20092;-73
2023/09/08 10:50:32;;;;;;;9.63;6.68;;;26.60;99.90;;;;;;5003751;28;20687;-75
2023/09/08 10:53:14;;;;;;;9.55;7.05;;;26.70;99.90;;;;;;5004507;28;20033;-72
2023/09/08 10:55:43;;;;;;;13.50;6.60;;;26.80;99.90;;;;;;5004784;28;20030;-73
2023/09/08 10:58:10;;;;;;;10.38;6.63;;;27.00;99.90;;;;;;5004549;28;20050;-71
2023/09/08 11:00:44;;;;;;;13.18;6.63;;;27.00;99.90;;;;;;5005608;28;20022;-73
2023/09/08 11:03:10;;;;;;;11.07;6.72;;;27.10;99.90;;;;;;5003556;28;20038;-73
2023/09/08 11:05:35;;;;;;;11.18;6.30;;;27.20;99.90;;;;;;5004347;28;20050;-74
2023/09/08 11:08:01;;;;;;;10.52;6.47;;;27.30;99.90;;;;;;5004961;28;20034;-73
2023/09/08 11:10:28;;;;;;;13.15;6.03;;;27.40;99.90;;;;;;5004796;28;20029;-72
2023/09/08 11:12:54;;;;;;;11.27;6.03;;;27.40;99.90;;;;;;5003316;28;20941;-72
2023/09/08 11:15:20;;;;;;;10.60;6.18;;;27.50;99.90;;;;;;5004331;28;20030;-72
2023/09/08 11:17:50;;;;;;;10.90;6.20;;;27.60;99.90;;;;;;5003420;28;20022;-73
2023/09/08 11:20:16;;;;;;;8.63;5.93;;;27.70;99.90;;;;;;5003364;28;20026;-72
2023/09/08 11:22:43;;;;;;;9.73;5.75;;;27.80;99.90;;;;;;5004718;28;20423;-72
2023/09/08 11:25:12;;;;;;;9.02;6.22;;;27.80;99.90;;;;;;5004663;28;20468;-73
2023/09/08 11:27:41;;;;;;;10.65;6.10;;;28.00;99.90;;;;;;5004522;28;20031;-70
2023/09/08 11:30:12;;;;;;;8.02;5.50;;;28.10;99.90;;;;;;5003751;28;20029;-73
2023/09/08 11:32:37;;;;;;;7.78;5.50;;;28.20;99.90;;;;;;5004237;28;20204;-71
2023/09/08 11:35:09;;;;;;;9.15;5.78;;;28.20;99.90;;;;;;5004502;28;20062;-72
2023/09/08 11:37:41;;;;;;;7.47;5.88;;;28.30;99.90;;;;;;5004373;28;20038;-72
2023/09/08 11:40:09;;;;;;;9.80;5.72;;;28.40;99.90;;;;;;5004300;28;20026;-74
2023/09/08 11:42:35;;;;;;;6.72;5.68;;;28.50;99.90;;;;;;5003119;28;20124;-71
2023/09/08 11:45:03;;;;;;;8.82;5.95;;;28.60;99.90;;;;;;5002351;28;20018;-73
2023/09/08 11:47:29;;;;;;;7.72;5.53;;;28.70;99.90;;;;;;5004059;28;20026;-73
2023/09/08 11:49:57;;;;;;;12.43;6.07;;;28.90;99.90;;;;;;5002939;28;20514;-71
2023/09/08 11:52:25;;;;;;;8.23;5.82;;;29.00;99.90;;;;;;5003262;28;20069;-73
2023/09/08 11:54:52;;;;;;;8.25;5.13;;;29.10;99.90;;;;;;5003683;28;20033;-72
2023/09/08 11:57:18;;;;;;;8.00;5.32;;;29.30;99.90;;;;;;5003987;28;20030;-73
2023/09/08 11:59:47;;;;;;;9.38;5.75;;;29.50;99.90;;;;;;5004007;28;20375;-73
2023/09/08 12:02:14;;;;;;;8.43;5.70;;;29.70;99.90;;;;;;5003720;28;21434;-74
2023/09/08 12:04:41;;;;;;;7.78;5.57;;;29.70;99.90;;;;;;5003556;28;20042;-73
2023/09/08 12:07:12;;;;;;;9.05;5.88;;;29.90;99.90;;;;;;4999075;28;20054;-73
2023/09/08 12:09:38;;;;;;;14.25;5.68;;;30.00;99.90;;;;;;5000164;28;20435;-74
2023/09/08 12:12:13;;;;;;;13.02;5.60;;;30.20;99.90;;;;;;4995072;28;20026;-72
2023/09/08 12:14:43;;;;;;;7.63;4.97;;;30.40;99.90;;;;;;4999854;28;20022;-75
2023/09/08 12:17:09;;;;;;;8.23;5.10;;;30.50;99.90;;;;;;5000660;28;20040;-72
2023/09/08 12:19:38;;;;;;;11.43;4.88;;;30.50;99.90;;;;;;5000800;28;20031;-74
2023/09/08 12:22:07;;;;;;;9.18;4.80;;;30.60;99.90;;;;;;4998089;28;20544;-73
2023/09/08 12:24:50;;;;;;;8.23;5.05;;;30.80;99.90;;;;;;5002442;28;20050;-74
2023/09/08 12:27:18;;;;;;;7.20;5.05;;;30.90;99.90;;;;;;4999940;28;20033;-73
2023/09/08 12:29:58;;;;;;;10.57;4.97;;;30.90;99.90;;;;;;5000810;28;20022;-74
2023/09/08 12:32:25;;;;;;;5.90;4.68;;;30.90;99.90;;;;;;5000481;28;20471;-74